createdAt,value
2023-03-26T00:01:29.803Z,42.32
2023-03-26T00:03:58.749Z,42.32
2023-03-26T00:06:28.892Z,42.12
2023-03-26T00:08:58.455Z,42.20
2023-03-26T00:11:29.597Z,42.25
2023-03-26T00:13:58.281Z,42.24
2023-03-26T00:16:28.393Z,42.27
2023-03-26T00:18:57.865Z,41.94
2023-03-26T00:21:28.183Z,41.83
2023-03-26T00:23:58.570Z,42.13
2023-03-26T00:26:29.825Z,42.16
2023-03-26T00:28:58.287Z,42.17
2023-03-26T00:31:26.713Z,41.98
2023-03-26T00:33:55.813Z,42.11
2023-03-26T00:36:25.648Z,42.19
2023-03-26T00:38:54.499Z,42.01
2023-03-26T00:41:27.109Z,41.91
2023-03-26T00:43:59.151Z,41.94
2023-03-26T00:46:29.222Z,42.04
2023-03-26T00:48:58.987Z,42.13
2023-03-26T00:51:27.832Z,41.97
2023-03-26T00:53:56.360Z,42.15
2023-03-26T00:56:24.840Z,42.22
2023-03-26T00:58:53.297Z,42.10
2023-03-26T01:01:28.529Z,41.94
2023-03-26T01:04:07.346Z,41.95
2023-03-26T01:06:38.852Z,42.07
2023-03-26T01:09:14.647Z,41.84
2023-03-26T01:11:43.255Z,42.04
2023-03-26T01:14:13.216Z,42.00
2023-03-26T01:16:45.280Z,41.76
2023-03-26T01:19:16.506Z,42.12
2023-03-26T01:21:44.944Z,42.01
2023-03-26T01:24:14.847Z,41.95
2023-03-26T01:27:13.254Z,41.99
2023-03-26T01:29:45.351Z,41.95
2023-03-26T01:32:26.079Z,41.95
2023-03-26T01:35:04.742Z,41.77
2023-03-26T01:37:38.745Z,41.93
2023-03-26T01:40:11.942Z,41.86
2023-03-26T01:42:43.654Z,41.95
2023-03-26T01:45:14.491Z,41.84
2023-03-26T01:47:43.112Z,42.03
2023-03-26T01:50:12.072Z,41.74
2023-03-26T01:52:40.850Z,41.97
2023-03-26T01:55:11.870Z,41.79
2023-03-26T01:57:50.115Z,41.84
2023-03-26T02:00:24.427Z,41.80
2023-03-26T02:03:17.772Z,41.70
2023-03-26T02:05:52.676Z,41.64
2023-03-26T02:08:24.823Z,41.79
2023-03-26T02:10:57.603Z,41.97
2023-03-26T02:13:26.405Z,41.93
2023-03-26T02:15:59.598Z,41.65
2023-03-26T02:18:36.446Z,41.88
2023-03-26T02:21:10.088Z,41.71
2023-03-26T02:23:38.664Z,41.77
2023-03-26T02:26:09.488Z,41.82
2023-03-26T02:28:38.399Z,41.61
2023-03-26T02:31:09.794Z,41.66
2023-03-26T02:33:39.349Z,41.76
2023-03-26T02:36:08.933Z,41.72
2023-03-26T02:38:37.422Z,41.72
2023-03-26T02:41:06.351Z,41.53
2023-03-26T02:43:36.227Z,41.66
2023-03-26T02:46:05.154Z,41.47
2023-03-26T02:48:34.867Z,41.46
2023-03-26T02:51:03.300Z,41.60
2023-03-26T02:53:31.802Z,41.65
2023-03-26T02:56:02.061Z,41.74
2023-03-26T02:58:30.813Z,41.64
2023-03-26T03:01:03.242Z,41.75
2023-03-26T03:03:31.874Z,41.51
2023-03-26T03:06:00.458Z,41.70
2023-03-26T03:08:29.529Z,41.49
2023-03-26T03:10:59.596Z,41.58
2023-03-26T03:13:28.241Z,41.63
2023-03-26T03:15:56.902Z,41.45
2023-03-26T03:18:26.991Z,41.55
2023-03-26T03:20:55.437Z,41.44
2023-03-26T03:23:24.014Z,41.56
2023-03-26T03:25:53.123Z,41.55
2023-03-26T03:28:22.625Z,41.70
2023-03-26T03:30:53.248Z,41.45
2023-03-26T03:33:21.969Z,41.60
2023-03-26T03:35:53.186Z,41.44
2023-03-26T03:38:21.870Z,41.52
2023-03-26T03:40:50.328Z,41.61
2023-03-26T03:43:18.972Z,41.29
2023-03-26T03:45:47.563Z,41.51
2023-03-26T03:48:18.271Z,41.25
2023-03-26T03:50:46.679Z,41.36
2023-03-26T03:53:16.573Z,41.55
2023-03-26T03:55:53.138Z,41.19
2023-03-26T03:58:22.361Z,41.55
2023-03-26T04:00:50.941Z,41.45
2023-03-26T04:03:20.012Z,41.42
2023-03-26T04:06:02.415Z,41.54
2023-03-26T04:08:32.203Z,41.55
2023-03-26T04:11:00.694Z,41.40
2023-03-26T04:13:29.118Z,41.45
2023-03-26T04:15:58.074Z,41.48
2023-03-26T04:18:27.849Z,41.35
2023-03-26T04:20:56.385Z,41.42
2023-03-26T04:23:26.687Z,41.29
2023-03-26T04:25:56.950Z,41.51
2023-03-26T04:28:30.552Z,41.23
2023-03-26T04:31:02.131Z,41.22
2023-03-26T04:33:31.072Z,41.22
2023-03-26T04:36:01.771Z,41.23
2023-03-26T04:38:33.586Z,41.06
2023-03-26T04:41:04.645Z,41.24
2023-03-26T04:43:35.698Z,41.34
2023-03-26T04:46:04.665Z,41.35
2023-03-26T04:48:33.193Z,41.19
2023-03-26T04:51:01.785Z,41.41
2023-03-26T04:53:30.294Z,41.06
2023-03-26T04:56:01.643Z,41.35
2023-03-26T04:58:33.216Z,41.39
2023-03-26T05:01:10.210Z,41.23
2023-03-26T05:03:41.504Z,41.41
2023-03-26T05:06:11.553Z,41.19
2023-03-26T05:08:40.047Z,41.34
2023-03-26T05:11:11.741Z,40.89
2023-03-26T05:13:42.984Z,41.25
2023-03-26T05:16:12.597Z,41.16
2023-03-26T05:18:41.330Z,41.27
2023-03-26T05:21:10.935Z,41.36
2023-03-26T05:23:39.407Z,41.22
2023-03-26T05:26:08.801Z,41.30
2023-03-26T05:28:37.325Z,41.15
2023-03-26T05:31:08.358Z,41.04
2023-03-26T05:33:37.589Z,41.38
2023-03-26T05:36:09.370Z,41.67
2023-03-26T05:38:38.059Z,41.94
2023-03-26T05:41:08.883Z,42.16
2023-03-26T05:43:37.486Z,41.94
2023-03-26T05:46:08.578Z,42.27
2023-03-26T05:48:38.174Z,42.35
2023-03-26T05:51:08.096Z,42.77
2023-03-26T05:53:36.658Z,42.65
2023-03-26T05:56:05.675Z,42.67
2023-03-26T05:58:34.843Z,42.66
2023-03-26T06:01:06.060Z,42.75
2023-03-26T06:03:36.937Z,40.16
2023-03-26T06:06:08.225Z,42.17
2023-03-26T06:08:36.747Z,43.09
2023-03-26T06:11:08.288Z,43.14
2023-03-26T06:13:36.883Z,44.24
2023-03-26T06:16:05.748Z,43.18
2023-03-26T06:18:35.786Z,43.25
2023-03-26T06:21:04.486Z,43.36
2023-03-26T06:23:33.055Z,43.26
2023-03-26T06:26:01.559Z,43.31
2023-03-26T06:28:29.984Z,43.18
2023-03-26T06:31:01.041Z,43.07
2023-03-26T06:33:29.672Z,42.95
2023-03-26T06:35:59.626Z,43.10
2023-03-26T06:38:28.114Z,43.21
2023-03-26T06:40:56.855Z,43.43
2023-03-26T06:43:25.517Z,43.32
2023-03-26T06:45:54.103Z,43.59
2023-03-26T06:48:22.535Z,43.32
2023-03-26T06:50:51.250Z,43.50
2023-03-26T06:53:21.188Z,43.07
2023-03-26T06:55:49.668Z,43.20
2023-03-26T06:58:18.062Z,43.33
2023-03-26T07:00:46.639Z,43.16
2023-03-26T07:03:17.303Z,43.01
2023-03-26T07:05:46.076Z,43.04
2023-03-26T07:08:14.499Z,43.19
2023-03-26T07:10:44.344Z,42.98
2023-03-26T07:13:12.836Z,42.90
2023-03-26T07:15:41.400Z,43.05
2023-03-26T07:18:09.918Z,42.95
2023-03-26T07:20:38.948Z,43.05
2023-03-26T07:23:08.349Z,42.76
2023-03-26T07:25:37.574Z,42.72
2023-03-26T07:28:14.339Z,42.88
2023-03-26T07:30:50.410Z,42.63
2023-03-26T07:33:22.986Z,42.61
2023-03-26T07:35:54.812Z,42.70
2023-03-26T07:38:34.100Z,42.58
2023-03-26T07:41:08.641Z,42.68
2023-03-26T07:44:20.941Z,42.44
2023-03-26T07:46:49.469Z,42.56
2023-03-26T07:49:20.467Z,42.60
2023-03-26T07:51:49.906Z,42.48
2023-03-26T07:54:19.083Z,42.52
2023-03-26T07:56:52.811Z,42.57
2023-03-26T07:59:29.353Z,42.44
2023-03-26T08:02:33.105Z,42.50
2023-03-26T08:05:19.844Z,42.46
2023-03-26T08:08:00.888Z,42.35
2023-03-26T08:10:33.182Z,42.26
2023-03-26T08:13:09.073Z,42.35
2023-03-26T08:15:44.169Z,42.09
2023-03-26T08:18:27.555Z,42.25
2023-03-26T08:21:11.281Z,42.56
2023-03-26T08:23:50.291Z,42.24
2023-03-26T08:26:27.569Z,42.31
2023-03-26T08:29:03.932Z,42.30
2023-03-26T08:31:36.738Z,42.15
2023-03-26T08:34:05.246Z,42.05
2023-03-26T08:36:33.818Z,42.16
2023-03-26T08:39:02.421Z,42.20
2023-03-26T08:42:12.425Z,42.04
2023-03-26T08:45:36.409Z,42.05
2023-03-26T08:48:54.754Z,42.08
2023-03-26T08:52:01.648Z,42.13
2023-03-26T08:55:23.957Z,42.02
2023-03-26T08:58:58.897Z,41.98
2023-03-26T09:02:19.202Z,41.84
2023-03-26T09:05:20.480Z,41.91
2023-03-26T09:08:53.725Z,42.01
2023-03-26T09:12:01.932Z,41.74
2023-03-26T09:15:27.282Z,41.94
2023-03-26T09:18:37.354Z,41.68
2023-03-26T09:21:46.774Z,41.66
2023-03-26T09:24:54.626Z,41.83
2023-03-26T09:27:39.753Z,42.00
2023-03-26T09:30:56.265Z,41.64
2023-03-26T09:33:33.348Z,41.57
2023-03-26T09:36:31.633Z,41.77
2023-03-26T09:39:08.847Z,41.57
2023-03-26T09:41:44.204Z,41.79
2023-03-26T09:45:10.721Z,41.57
2023-03-26T09:48:05.675Z,41.55
2023-03-26T09:50:46.354Z,41.74
2023-03-26T09:53:33.909Z,41.74
2023-03-26T09:56:10.061Z,41.60
2023-03-26T09:59:08.293Z,41.53
2023-03-26T10:01:41.754Z,41.38
2023-03-26T10:04:54.552Z,41.38
2023-03-26T10:07:49.035Z,41.43
2023-03-26T10:10:23.876Z,41.39
2023-03-26T10:12:59.743Z,41.33
2023-03-26T10:15:53.408Z,41.36
2023-03-26T10:18:27.550Z,41.55
2023-03-26T10:21:01.842Z,41.30
2023-03-26T10:23:53.069Z,41.34
2023-03-26T10:27:08.923Z,41.38
2023-03-26T10:30:00.891Z,41.49
2023-03-26T10:32:33.399Z,41.45
2023-03-26T10:35:12.778Z,41.32
2023-03-26T10:37:52.796Z,41.35
2023-03-26T10:40:24.997Z,41.29
2023-03-26T10:43:38.228Z,41.35
2023-03-26T10:46:31.832Z,41.19
2023-03-26T10:49:44.407Z,41.21
2023-03-26T10:52:16.184Z,41.37
2023-03-26T10:54:54.256Z,41.32
2023-03-26T10:57:34.780Z,41.16
2023-03-26T11:00:15.817Z,41.16
2023-03-26T11:02:48.331Z,40.93
2023-03-26T11:05:29.746Z,40.97
2023-03-26T11:08:01.329Z,41.04
2023-03-26T11:10:40.490Z,41.12
2023-03-26T11:13:15.534Z,41.12
2023-03-26T11:15:47.894Z,41.16
2023-03-26T11:18:19.720Z,40.97
2023-03-26T11:20:50.717Z,40.94
2023-03-26T11:23:32.691Z,40.93
2023-03-26T11:26:16.721Z,40.99
2023-03-26T11:29:31.224Z,41.26
2023-03-26T11:32:06.850Z,40.80
2023-03-26T11:34:38.519Z,40.96
2023-03-26T11:37:09.814Z,41.23
2023-03-26T11:39:44.389Z,40.96
2023-03-26T11:42:15.123Z,40.75
2023-03-26T11:44:47.323Z,40.94
2023-03-26T11:47:20.026Z,40.96
2023-03-26T11:49:48.450Z,40.98
2023-03-26T11:52:16.946Z,41.01
2023-03-26T11:54:48.403Z,41.07
2023-03-26T11:57:20.494Z,41.00
2023-03-26T11:59:57.152Z,41.04
2023-03-26T12:02:32.511Z,40.96
2023-03-26T12:05:19.488Z,40.78
2023-03-26T12:07:53.033Z,40.88
2023-03-26T12:10:27.913Z,40.91
2023-03-26T12:12:58.292Z,41.11
2023-03-26T12:15:27.326Z,40.77
2023-03-26T12:17:58.538Z,40.87
2023-03-26T12:20:38.865Z,40.99
2023-03-26T12:23:08.266Z,40.98
2023-03-26T12:25:37.653Z,40.80
2023-03-26T12:28:13.321Z,40.76
2023-03-26T12:30:42.582Z,40.74
2023-03-26T12:33:18.274Z,40.83
2023-03-26T12:35:46.917Z,40.69
2023-03-26T12:38:19.234Z,40.63
2023-03-26T12:40:47.990Z,41.07
2023-03-26T12:44:54.713Z,40.73
2023-03-26T12:47:56.440Z,40.81
2023-03-26T12:49:17.344Z,41.04
2023-03-26T12:51:49.625Z,40.77
2023-03-26T12:54:42.579Z,41.04
2023-03-26T12:57:21.609Z,41.00
2023-03-26T13:00:28.990Z,40.72
2023-03-26T13:03:16.703Z,40.65
2023-03-26T13:06:09.302Z,40.62
2023-03-26T13:09:05.072Z,41.01
2023-03-26T13:11:37.753Z,40.56
2023-03-26T13:14:47.882Z,40.83
2023-03-26T13:17:23.196Z,40.65
2023-03-26T13:19:59.610Z,40.71
2023-03-26T13:22:33.944Z,40.63
2023-03-26T13:25:09.393Z,40.80
2023-03-26T13:27:45.849Z,40.75
2023-03-26T13:30:25.587Z,40.88
2023-03-26T13:33:13.619Z,40.89
2023-03-26T13:35:46.827Z,40.63
2023-03-26T13:38:20.731Z,40.70
2023-03-26T13:40:54.089Z,40.53
2023-03-26T13:43:39.282Z,40.67
2023-03-26T13:46:14.080Z,40.85
2023-03-26T13:48:46.555Z,40.80
2023-03-26T13:51:19.066Z,40.58
2023-03-26T13:53:52.351Z,40.68
2023-03-26T13:56:25.302Z,40.55
2023-03-26T13:58:57.589Z,40.57
2023-03-26T14:01:34.053Z,40.70
2023-03-26T14:04:07.923Z,40.90
2023-03-26T14:06:43.569Z,40.74
2023-03-26T14:09:18.611Z,40.49
2023-03-26T14:12:23.003Z,40.73
2023-03-26T14:14:54.276Z,40.61
2023-03-26T14:17:25.758Z,40.80
2023-03-26T14:20:51.521Z,40.74
2023-03-26T14:23:59.826Z,40.79
2023-03-26T14:26:58.395Z,40.65
2023-03-26T14:29:56.974Z,40.51
2023-03-26T14:32:46.748Z,40.67
2023-03-26T14:35:29.587Z,40.48
2023-03-26T14:38:25.251Z,40.77
2023-03-26T14:41:05.508Z,40.70
2023-03-26T14:44:30.777Z,40.70
2023-03-26T14:47:18.595Z,40.54
2023-03-26T14:50:37.493Z,40.68
2023-03-26T14:53:13.572Z,40.58
2023-03-26T14:56:11.724Z,40.67
2023-03-26T14:59:26.701Z,40.53
2023-03-26T15:03:11.458Z,40.58
2023-03-26T15:06:51.144Z,40.58
2023-03-26T15:10:11.979Z,40.73
2023-03-26T15:12:55.634Z,40.63
2023-03-26T15:16:28.250Z,40.82
2023-03-26T15:19:38.129Z,40.65
2023-03-26T15:23:30.556Z,40.59
2023-03-26T15:26:46.760Z,40.79
2023-03-26T15:30:13.241Z,40.71
2023-03-26T15:33:57.218Z,40.38
2023-03-26T15:37:17.351Z,40.44
2023-03-26T15:40:00.050Z,40.59
2023-03-26T15:42:32.428Z,40.44
2023-03-26T15:45:22.529Z,40.41
2023-03-26T15:48:01.112Z,40.44
2023-03-26T15:50:40.452Z,40.52
2023-03-26T15:53:25.395Z,40.56
2023-03-26T15:56:33.030Z,40.46
2023-03-26T15:59:07.550Z,40.51
2023-03-26T16:01:51.640Z,40.39
2023-03-26T16:04:26.739Z,40.46
2023-03-26T16:07:03.843Z,40.77
2023-03-26T16:09:54.537Z,40.43
2023-03-26T16:12:36.010Z,40.45
2023-03-26T16:15:26.719Z,40.39
2023-03-26T16:18:34.214Z,40.42
2023-03-26T16:21:40.495Z,40.41
2023-03-26T16:24:37.685Z,40.59
2023-03-26T16:27:29.977Z,40.58
2023-03-26T16:30:30.563Z,40.30
2023-03-26T16:33:09.913Z,40.46
2023-03-26T16:36:09.649Z,40.44
2023-03-26T16:38:55.525Z,40.48
2023-03-26T16:41:27.976Z,40.51
2023-03-26T16:44:11.747Z,40.38
2023-03-26T16:46:49.645Z,40.29
2023-03-26T16:49:27.632Z,40.20
2023-03-26T16:52:09.776Z,40.32
2023-03-26T16:54:46.154Z,40.36
2023-03-26T16:57:28.155Z,40.39
2023-03-26T17:00:40.418Z,40.40
2023-03-26T17:03:41.182Z,40.18
2023-03-26T17:06:29.128Z,40.45
2023-03-26T17:09:06.518Z,40.44
2023-03-26T17:11:44.263Z,40.30
2023-03-26T17:14:35.190Z,40.18
2023-03-26T17:17:28.568Z,40.12
2023-03-26T17:20:00.168Z,40.15
2023-03-26T17:22:38.410Z,40.29
2023-03-26T17:25:20.211Z,40.24
2023-03-26T17:27:52.900Z,40.51
2023-03-26T17:30:43.118Z,40.39
2023-03-26T17:33:16.424Z,40.44
2023-03-26T17:35:46.233Z,40.10
2023-03-26T17:38:55.384Z,40.38
2023-03-26T17:42:13.817Z,40.42
2023-03-26T17:44:45.222Z,40.32
2023-03-26T17:47:28.337Z,40.45
2023-03-26T17:50:01.076Z,40.51
2023-03-26T17:52:42.521Z,40.20
2023-03-26T17:55:11.713Z,40.18
2023-03-26T17:57:43.022Z,40.35
2023-03-26T18:00:18.417Z,40.33
2023-03-26T18:02:54.213Z,40.12
2023-03-26T18:05:22.939Z,40.21
2023-03-26T18:08:56.560Z,40.30
2023-03-26T18:11:59.125Z,40.38
2023-03-26T18:15:28.132Z,40.12
2023-03-26T18:18:04.532Z,39.15
2023-03-26T18:20:36.708Z,40.02
2023-03-26T18:23:11.609Z,40.03
2023-03-26T18:25:41.120Z,40.09
2023-03-26T18:28:12.899Z,40.30
2023-03-26T18:30:48.606Z,40.09
2023-03-26T18:33:19.536Z,40.58
2023-03-26T18:35:53.042Z,40.53
2023-03-26T18:38:36.020Z,40.43
2023-03-26T18:41:08.212Z,40.63
2023-03-26T18:43:43.929Z,40.62
2023-03-26T18:46:13.643Z,40.48
2023-03-26T18:48:43.626Z,40.50
2023-03-26T18:51:12.099Z,40.25
2023-03-26T18:53:42.867Z,40.46
2023-03-26T18:56:32.277Z,40.65
2023-03-26T18:59:02.550Z,40.94
2023-03-26T19:01:32.183Z,40.75
2023-03-26T19:04:04.181Z,41.15
2023-03-26T19:06:35.883Z,41.21
2023-03-26T19:09:13.497Z,41.10
2023-03-26T19:11:50.055Z,41.11
2023-03-26T19:14:19.634Z,41.03
2023-03-26T19:16:49.629Z,40.88
2023-03-26T19:19:23.139Z,40.84
2023-03-26T19:21:51.739Z,40.92
2023-03-26T19:24:20.238Z,40.79
2023-03-26T19:26:48.888Z,41.03
2023-03-26T19:29:20.447Z,41.00
2023-03-26T19:31:52.340Z,40.82
2023-03-26T19:34:27.451Z,40.95
2023-03-26T19:36:59.542Z,41.03
2023-03-26T19:39:37.891Z,40.78
2023-03-26T19:42:06.626Z,40.73
2023-03-26T19:44:35.919Z,40.65
2023-03-26T19:47:06.708Z,40.71
2023-03-26T19:49:48.972Z,40.96
2023-03-26T19:52:22.332Z,40.93
2023-03-26T19:55:01.664Z,40.86
2023-03-26T19:57:32.206Z,40.57
2023-03-26T20:00:00.828Z,40.75
2023-03-26T20:02:29.537Z,40.80
2023-03-26T20:04:59.438Z,41.00
2023-03-26T20:10:16.692Z,41.07
2023-03-26T20:12:45.162Z,41.08
2023-03-26T20:15:22.538Z,41.05
2023-03-26T20:17:52.596Z,40.80
2023-03-26T20:20:24.810Z,40.80
2023-03-26T20:22:53.870Z,40.70
2023-03-26T20:25:25.210Z,41.07
2023-03-26T20:27:55.401Z,40.79
2023-03-26T20:30:36.889Z,40.79
2023-03-26T20:33:12.028Z,40.67
2023-03-26T20:35:43.618Z,40.95
2023-03-26T20:38:12.204Z,41.00
2023-03-26T20:40:41.079Z,40.89
2023-03-26T20:43:16.340Z,40.87
2023-03-26T20:45:44.892Z,40.85
2023-03-26T20:48:13.500Z,40.97
2023-03-26T20:50:50.808Z,40.82
2023-03-26T20:53:20.512Z,40.75
2023-03-26T20:55:51.058Z,40.77
2023-03-26T20:58:31.552Z,40.88
2023-03-26T21:01:02.230Z,40.92
2023-03-26T21:03:31.078Z,41.21
2023-03-26T21:06:02.760Z,40.99
2023-03-26T21:08:37.919Z,41.24
2023-03-26T21:11:27.028Z,41.04
2023-03-26T21:14:01.125Z,41.27
2023-03-26T21:16:30.456Z,41.00
2023-03-26T21:18:59.668Z,41.14
2023-03-26T21:21:40.836Z,41.11
2023-03-26T21:24:13.263Z,41.24
2023-03-26T21:26:44.427Z,41.16
2023-03-26T21:29:13.419Z,41.28
2023-03-26T21:31:42.795Z,41.19
2023-03-26T21:34:13.360Z,41.11
2023-03-26T21:36:44.167Z,41.13
2023-03-26T21:39:13.467Z,41.20
2023-03-26T21:41:46.128Z,41.28
2023-03-26T21:44:15.387Z,41.35
2023-03-26T21:46:45.570Z,41.23
2023-03-26T21:49:15.146Z,41.31
2023-03-26T21:51:46.042Z,41.03
2023-03-26T21:54:23.917Z,41.31
2023-03-26T21:57:03.353Z,41.08
2023-03-26T21:59:37.698Z,41.35
2023-03-26T22:02:10.154Z,41.25
2023-03-26T22:04:43.006Z,41.12
2023-03-26T22:07:14.835Z,41.34
2023-03-26T22:09:44.978Z,41.30
2023-03-26T22:12:13.527Z,41.31
2023-03-26T22:14:41.967Z,41.05
2023-03-26T22:17:10.486Z,41.34
2023-03-26T22:19:38.968Z,41.19
2023-03-26T22:22:07.526Z,41.10
2023-03-26T22:24:37.366Z,41.13
2023-03-26T22:27:06.347Z,41.12
2023-03-26T22:29:34.825Z,41.28
2023-03-26T22:32:04.142Z,41.39
2023-03-26T22:34:35.142Z,41.02
2023-03-26T22:37:05.666Z,41.00
2023-03-26T22:39:34.121Z,41.04
2023-03-26T22:42:05.026Z,41.13
2023-03-26T22:44:33.564Z,41.20
2023-03-26T22:47:02.380Z,41.22
2023-03-26T22:49:31.485Z,41.00
2023-03-26T22:51:59.935Z,41.03
2023-03-26T22:54:29.505Z,41.31
2023-03-26T22:56:58.026Z,41.21
2023-03-26T22:59:27.927Z,41.11
2023-03-26T23:01:56.713Z,41.24
2023-03-26T23:04:31.481Z,41.07
2023-03-26T23:07:01.053Z,41.17
2023-03-26T23:09:29.632Z,41.02
2023-03-26T23:11:58.152Z,41.33
2023-03-26T23:14:28.753Z,41.11
2023-03-26T23:16:57.310Z,41.13
2023-03-26T23:19:25.843Z,41.24
2023-03-26T23:21:54.387Z,41.16
2023-03-26T23:24:22.867Z,41.12
2023-03-26T23:26:51.461Z,41.14
2023-03-26T23:29:20.102Z,41.26
2023-03-26T23:31:53.002Z,41.26
2023-03-26T23:34:21.629Z,41.36
2023-03-26T23:36:50.236Z,41.26
2023-03-26T23:39:18.897Z,41.32
2023-03-26T23:41:47.314Z,41.05
2023-03-26T23:44:17.156Z,41.25
2023-03-26T23:46:45.670Z,41.38
2023-03-26T23:49:15.694Z,41.12
2023-03-26T23:51:44.163Z,41.36
2023-03-26T23:54:12.818Z,41.04
2023-03-26T23:56:41.250Z,41.37
2023-03-26T23:59:09.805Z,41.35
